Time;durP1;ratioP1;P1;durP2;ratioP2;P2;SDS_P1;SDS_P2;PMS_P1;PMS_P2;Temp;Humidity;BMP_temperature;BMP_pressure;BME280_temperature;BME280_humidity;BME280_pressure;Samples;Min_cycle;Max_cycle;Signal;HPM_P1;HPM_P2
2023/12/30 00:00:17;;;;;;;9.88;6.40;;;24.40;61.00;;;;;;5014012;28;20526;-81
2023/12/30 00:02:44;;;;;;;2.65;1.23;;;24.50;61.50;;;;;;5021821;28;20029;-82
2023/12/30 00:05:12;;;;;;;2.03;1.20;;;24.50;60.30;;;;;;5011880;28;20030;-87
2023/12/30 00:07:39;;;;;;;3.47;1.23;;;24.50;59.90;;;;;;5029906;28;20496;-79
2023/12/30 00:10:07;;;;;;;4.72;1.15;;;24.40;59.40;;;;;;5035361;28;20068;-85
2023/12/30 00:12:34;;;;;;;3.10;1.70;;;24.40;60.50;;;;;;5020141;28;20026;-85
2023/12/30 00:15:03;;;;;;;4.50;1.50;;;24.50;61.30;;;;;;5012318;28;20470;-79
2023/12/30 00:17:30;;;;;;;5.93;1.20;;;24.50;61.60;;;;;;5014825;28;20040;-79
2023/12/30 00:19:57;;;;;;;4.03;1.75;;;24.60;61.90;;;;;;5018203;28;20033;-82
2023/12/30 00:22:25;;;;;;;2.78;1.35;;;24.60;62.10;;;;;;5013725;28;20116;-84
2023/12/30 00:24:52;;;;;;;3.40;1.15;;;24.60;62.40;;;;;;5004945;28;20546;-86
2023/12/30 00:27:21;;;;;;;2.95;0.95;;;24.70;61.60;;;;;;5027795;28;20037;-80
2023/12/30 00:29:49;;;;;;;3.25;0.98;;;24.80;60.30;;;;;;5012008;28;20381;-82
2023/12/30 00:32:17;;;;;;;2.00;0.95;;;24.80;60.60;;;;;;5015178;28;20534;-82
2023/12/30 00:34:44;;;;;;;2.03;1.00;;;24.80;61.00;;;;;;5021767;28;20025;-79
2023/12/30 00:37:18;;;;;;;2.22;1.23;;;24.70;61.50;;;;;;5010114;28;20165;-87
2023/12/30 00:39:46;;;;;;;2.90;1.08;;;24.80;62.00;;;;;;5022547;28;20026;-81
2023/12/30 00:42:14;;;;;;;2.92;1.10;;;24.80;61.60;;;;;;5021577;28;20040;-88
2023/12/30 00:44:42;;;;;;;3.08;0.98;;;24.90;60.40;;;;;;5020306;28;20026;-88
2023/12/30 00:47:09;;;;;;;2.83;1.10;;;24.90;60.80;;;;;;5014469;28;20116;-88
2023/12/30 00:49:39;;;;;;;1.55;0.93;;;25.00;60.30;;;;;;5014606;28;20030;-89
2023/12/30 00:52:07;;;;;;;3.10;0.93;;;25.00;60.10;;;;;;5014487;28;20042;-80
2023/12/30 00:54:34;;;;;;;3.17;1.02;;;25.10;59.20;;;;;;5014361;28;20029;-85
2023/12/30 00:57:01;;;;;;;3.38;0.82;;;25.00;59.50;;;;;;5002618;28;20038;-88
2023/12/30 00:59:29;;;;;;;2.13;1.13;;;25.00;60.20;;;;;;5012997;28;20057;-86
2023/12/30 01:01:56;;;;;;;0.70;0.70;;;25.00;60.10;;;;;;5011475;28;20029;-80
2023/12/30 01:04:24;;;;;;;2.60;1.05;;;25.10;59.80;;;;;;5025631;28;20068;-80
2023/12/30 01:06:51;;;;;;;2.72;0.90;;;25.10;60.40;;;;;;5027046;28;20496;-86
2023/12/30 01:09:19;;;;;;;2.22;0.80;;;25.20;60.50;;;;;;5017714;28;20029;-85
2023/12/30 01:11:46;;;;;;;2.30;1.02;;;25.30;59.50;;;;;;5008872;28;20026;-87
2023/12/30 01:14:14;;;;;;;2.10;1.20;;;25.40;58.00;;;;;;5012821;28;20021;-79
2023/12/30 01:16:42;;;;;;;4.03;1.13;;;25.50;59.30;;;;;;5015003;28;20030;-87
2023/12/30 01:19:13;;;;;;;3.00;0.88;;;25.60;59.20;;;;;;5015623;28;20396;-87
2023/12/30 01:21:40;;;;;;;2.00;0.90;;;25.60;58.00;;;;;;5013095;28;20115;-89
2023/12/30 01:24:10;;;;;;;1.30;1.13;;;25.70;58.30;;;;;;5019597;28;20055;-83
2023/12/30 01:26:40;;;;;;;2.67;1.00;;;25.70;58.10;;;;;;5029095;28;20034;-80
2023/12/30 01:29:07;;;;;;;2.72;0.85;;;25.70;57.70;;;;;;5001392;28;20036;-87
2023/12/30 01:31:35;;;;;;;2.08;0.85;;;25.80;57.60;;;;;;5004135;28;20034;-87
2023/12/30 01:34:02;;;;;;;1.80;0.90;;;25.80;57.30;;;;;;5001022;28;20038;-90
2023/12/30 01:36:30;;;;;;;0.93;0.80;;;25.80;55.10;;;;;;5007863;28;20033;-80
2023/12/30 01:38:58;;;;;;;2.65;0.85;;;25.80;55.90;;;;;;5017287;28;20111;-83
2023/12/30 01:41:25;;;;;;;1.42;0.90;;;25.80;56.20;;;;;;5014237;28;20046;-78
2023/12/30 01:43:52;;;;;;;1.50;0.80;;;25.80;56.60;;;;;;5013784;28;20042;-86
2023/12/30 01:46:20;;;;;;;1.40;0.80;;;25.80;55.20;;;;;;5013958;28;20030;-86
2023/12/30 01:48:47;;;;;;;2.13;0.98;;;25.80;54.50;;;;;;5013936;28;20034;-83
2023/12/30 01:51:15;;;;;;;2.20;0.90;;;25.80;56.00;;;;;;5011533;28;20197;-86
2023/12/30 01:53:44;;;;;;;1.30;0.95;;;25.90;54.20;;;;;;5013919;28;20416;-79
2023/12/30 01:56:12;;;;;;;2.58;0.90;;;25.90;54.50;;;;;;5013925;28;20026;-90
2023/12/30 01:58:40;;;;;;;1.33;1.00;;;25.90;55.20;;;;;;5029102;28;20029;-90
2023/12/30 02:01:09;;;;;;;1.60;0.98;;;26.00;54.30;;;;;;5031017;28;20108;-89
2023/12/30 02:03:37;;;;;;;1.83;1.17;;;26.00;55.40;;;;;;5032422;28;20500;-91
2023/12/30 02:06:05;;;;;;;2.17;1.00;;;26.00;53.60;;;;;;5027113;28;20424;-88
2023/12/30 02:08:32;;;;;;;1.20;1.00;;;26.10;52.50;;;;;;5004058;28;20105;-80
2023/12/30 02:11:00;;;;;;;1.45;1.10;;;26.10;53.60;;;;;;5010944;28;20022;-89
2023/12/30 02:13:29;;;;;;;2.25;1.02;;;26.00;52.80;;;;;;5013146;28;20034;-87
2023/12/30 02:15:56;;;;;;;2.55;1.00;;;26.00;52.80;;;;;;5012637;28;20084;-86
2023/12/30 02:18:23;;;;;;;1.60;1.10;;;26.10;53.80;;;;;;5013262;28;20026;-80
2023/12/30 02:20:51;;;;;;;1.00;0.90;;;26.10;53.70;;;;;;5013286;28;20032;-85
2023/12/30 02:23:18;;;;;;;2.15;0.95;;;26.20;53.20;;;;;;5015995;28;20025;-90
2023/12/30 02:25:46;;;;;;;1.35;0.80;;;26.20;52.90;;;;;;5018724;28;20386;-88
2023/12/30 02:28:13;;;;;;;1.20;0.80;;;26.20;52.40;;;;;;5013130;28;20382;-83
2023/12/30 02:30:40;;;;;;;4.05;1.10;;;26.30;51.90;;;;;;5012973;28;20022;-84
2023/12/30 02:33:08;;;;;;;2.22;1.17;;;26.30;52.20;;;;;;5012989;28;20045;-83
2023/12/30 02:35:35;;;;;;;3.08;1.00;;;26.30;52.30;;;;;;5026434;28;20417;-79
2023/12/30 02:38:03;;;;;;;2.08;1.00;;;26.30;52.50;;;;;;5021001;28;20075;-82
2023/12/30 02:40:30;;;;;;;2.72;0.88;;;26.30;51.80;;;;;;5015708;28;20029;-89
2023/12/30 02:42:58;;;;;;;3.25;1.05;;;26.30;51.20;;;;;;5033528;28;20033;-91
2023/12/30 02:45:25;;;;;;;2.90;1.58;;;26.40;51.80;;;;;;5021648;28;20490;-89
2023/12/30 02:47:53;;;;;;;3.40;1.42;;;26.40;51.10;;;;;;5030029;28;20050;-88
2023/12/30 02:50:20;;;;;;;1.73;1.05;;;26.40;52.70;;;;;;5028541;28;20028;-88
2023/12/30 02:52:47;;;;;;;2.20;1.10;;;26.40;54.00;;;;;;5023403;28;20030;-89
2023/12/30 02:55:15;;;;;;;2.22;0.93;;;26.50;54.50;;;;;;5032363;28;20045;-87
2023/12/30 02:57:42;;;;;;;2.58;1.15;;;26.50;54.90;;;;;;5012520;28;20018;-85
2023/12/30 03:00:11;;;;;;;3.50;1.45;;;26.50;54.60;;;;;;5023515;28;20036;-90
2023/12/30 03:02:39;;;;;;;2.85;1.05;;;26.50;54.40;;;;;;5018518;28;20118;-91
2023/12/30 03:05:07;;;;;;;1.90;1.05;;;26.50;54.40;;;;;;5025119;28;20032;-88
2023/12/30 03:07:37;;;;;;;1.23;0.93;;;26.50;54.70;;;;;;5012642;28;20416;-91
2023/12/30 03:10:06;;;;;;;3.17;1.30;;;26.50;55.20;;;;;;5011624;28;20029;-90
2023/12/30 03:12:33;;;;;;;1.70;1.00;;;26.50;54.40;;;;;;5015987;28;20033;-88
2023/12/30 03:15:00;;;;;;;5.35;1.13;;;26.50;54.70;;;;;;5032576;28;20416;-89
2023/12/30 03:17:28;;;;;;;3.25;1.08;;;26.50;54.70;;;;;;5036623;28;20060;-88
2023/12/30 03:19:56;;;;;;;3.65;1.20;;;26.40;54.60;;;;;;5047695;28;20480;-79
2023/12/30 03:22:24;;;;;;;3.20;1.35;;;26.40;55.10;;;;;;5038468;28;20036;-91
2023/12/30 03:24:52;;;;;;;4.05;1.55;;;26.40;54.90;;;;;;5017373;28;20030;-89
2023/12/30 03:27:19;;;;;;;2.58;1.20;;;26.50;55.60;;;;;;5036597;28;20060;-86
2023/12/30 03:29:47;;;;;;;3.85;1.30;;;26.50;56.10;;;;;;5036452;28;20171;-81
2023/12/30 03:32:14;;;;;;;3.13;1.10;;;26.60;55.70;;;;;;5024274;28;20025;-80
2023/12/30 03:34:41;;;;;;;6.18;1.38;;;26.50;56.20;;;;;;5035501;28;20025;-90
2023/12/30 03:37:09;;;;;;;5.25;1.30;;;26.60;56.50;;;;;;5035823;28;20022;-89
2023/12/30 03:39:36;;;;;;;2.67;1.13;;;26.60;56.70;;;;;;5036498;28;20044;-89
2023/12/30 03:42:05;;;;;;;3.53;1.10;;;26.60;56.90;;;;;;5035479;28;20021;-90
2023/12/30 03:44:33;;;;;;;2.75;1.00;;;26.60;56.50;;;;;;5036054;28;20033;-87
2023/12/30 03:47:00;;;;;;;5.22;1.50;;;26.60;56.80;;;;;;5036576;28;20048;-88
2023/12/30 03:49:28;;;;;;;3.95;1.30;;;26.60;57.30;;;;;;5036435;28;20022;-88
2023/12/30 03:51:55;;;;;;;2.75;1.00;;;26.70;57.40;;;;;;5036649;28;20029;-79
2023/12/30 03:54:23;;;;;;;2.78;1.08;;;26.70;57.70;;;;;;5036180;28;20532;-89
2023/12/30 03:56:50;;;;;;;3.22;1.20;;;26.70;57.30;;;;;;5033620;28;20029;-89
2023/12/30 03:59:18;;;;;;;6.38;1.42;;;26.70;57.20;;;;;;5026690;28;20559;-88
2023/12/30 04:01:46;;;;;;;3.35;1.20;;;26.70;56.70;;;;;;5015794;28;20382;-80
2023/12/30 04:04:13;;;;;;;1.90;1.02;;;26.70;56.40;;;;;;5014895;28;20034;-88
2023/12/30 04:06:40;;;;;;;4.90;1.45;;;26.70;55.80;;;;;;5014880;28;20543;-89
2023/12/30 04:09:08;;;;;;;2.85;1.25;;;26.60;55.60;;;;;;5015909;28;20331;-91
2023/12/30 04:11:35;;;;;;;3.97;1.30;;;26.60;56.40;;;;;;5024661;28;20028;-82
2023/12/30 04:14:02;;;;;;;1.70;0.93;;;26.70;57.10;;;;;;5033299;28;20034;-90
2023/12/30 04:16:30;;;;;;;3.90;1.10;;;26.70;57.20;;;;;;5029645;28;20025;-91
2023/12/30 04:18:57;;;;;;;2.88;1.10;;;26.60;57.40;;;;;;5035565;28;20037;-91
2023/12/30 04:21:25;;;;;;;3.88;1.35;;;26.60;57.40;;;;;;5036148;28;20083;-90
2023/12/30 04:23:52;;;;;;;4.10;1.35;;;26.60;57.70;;;;;;5035447;28;20021;-90
2023/12/30 04:26:20;;;;;;;3.65;1.13;;;26.70;57.70;;;;;;5026263;28;20040;-90
2023/12/30 04:28:47;;;;;;;4.53;1.27;;;26.70;56.70;;;;;;5026923;28;20087;-90
2023/12/30 04:31:15;;;;;;;4.00;1.30;;;26.70;57.20;;;;;;5015577;28;20022;-90
2023/12/30 04:33:42;;;;;;;1.33;1.00;;;26.70;57.30;;;;;;5015397;28;20014;-88
2023/12/30 04:36:10;;;;;;;2.67;1.20;;;26.70;57.30;;;;;;5015520;28;20101;-89
2023/12/30 04:38:37;;;;;;;1.98;0.93;;;26.70;57.10;;;;;;5014422;28;20091;-90
2023/12/30 04:41:04;;;;;;;6.07;1.50;;;26.80;57.30;;;;;;5021299;28;20504;-89
2023/12/30 04:43:33;;;;;;;1.83;1.15;;;26.70;57.70;;;;;;5014233;28;20026;-90
2023/12/30 04:46:01;;;;;;;4.07;1.25;;;26.70;57.90;;;;;;5017853;28;20029;-91
2023/12/30 04:48:28;;;;;;;2.58;1.33;;;26.70;58.00;;;;;;5015210;28;20025;-89
2023/12/30 04:50:56;;;;;;;3.30;1.35;;;26.70;57.90;;;;;;5015005;28;20100;-89
2023/12/30 04:53:23;;;;;;;2.38;1.17;;;26.70;58.10;;;;;;5015148;28;20068;-87
2023/12/30 04:55:51;;;;;;;3.08;1.30;;;26.70;57.90;;;;;;5019999;28;20025;-88
2023/12/30 04:58:37;;;;;;;2.30;1.15;;;26.70;57.90;;;;;;5013600;28;20117;-88
2023/12/30 05:01:04;;;;;;;3.92;1.40;;;26.70;57.30;;;;;;5026363;28;20104;-88
2023/12/30 05:03:31;;;;;;;3.28;1.23;;;26.70;57.60;;;;;;5034825;28;20032;-90
2023/12/30 05:05:59;;;;;;;3.38;1.17;;;26.70;58.10;;;;;;5034112;28;20403;-84
2023/12/30 05:08:26;;;;;;;2.70;1.20;;;26.70;58.50;;;;;;5030658;28;20030;-89
2023/12/30 05:10:54;;;;;;;5.43;1.55;;;26.70;58.30;;;;;;5024705;28;20107;-91
2023/12/30 05:13:21;;;;;;;6.95;1.60;;;26.70;58.50;;;;;;5014929;28;20421;-90
2023/12/30 05:15:49;;;;;;;3.78;1.40;;;26.70;58.10;;;;;;5023747;28;20520;-87
2023/12/30 05:18:20;;;;;;;6.25;1.40;;;26.70;58.10;;;;;;5029746;28;20095;-89
2023/12/30 05:20:49;;;;;;;6.45;1.45;;;26.70;57.70;;;;;;5033208;28;20028;-90
2023/12/30 05:23:16;;;;;;;5.15;1.50;;;26.70;57.80;;;;;;5015200;28;20018;-91
2023/12/30 05:25:43;;;;;;;6.75;1.30;;;26.60;57.20;;;;;;5012980;28;20470;-83
2023/12/30 05:28:11;;;;;;;4.07;1.40;;;26.60;57.80;;;;;;5016356;28;20030;-81
2023/12/30 05:30:38;;;;;;;5.53;1.98;;;26.60;58.10;;;;;;5016280;28;20018;-91
2023/12/30 05:33:07;;;;;;;4.03;1.50;;;26.50;57.60;;;;;;5014416;28;20076;-91
2023/12/30 05:35:38;;;;;;;2.40;1.38;;;26.40;58.20;;;;;;5010386;28;20030;-89
2023/12/30 05:38:05;;;;;;;4.97;1.48;;;26.30;58.80;;;;;;5022723;28;20022;-87
2023/12/30 05:40:33;;;;;;;6.13;1.92;;;26.30;58.90;;;;;;5023109;28;20186;-78
2023/12/30 05:43:00;;;;;;;5.38;1.70;;;26.20;59.00;;;;;;5013982;28;20021;-89
2023/12/30 05:45:28;;;;;;;5.13;1.65;;;26.10;59.60;;;;;;5013257;28;20061;-89
2023/12/30 05:47:55;;;;;;;8.68;1.73;;;26.00;59.90;;;;;;5012170;28;20038;-91
2023/12/30 05:50:22;;;;;;;7.38;1.80;;;26.00;59.40;;;;;;5016919;28;20532;-88
2023/12/30 05:52:52;;;;;;;6.82;1.58;;;25.90;59.60;;;;;;5011128;28;20120;-86
2023/12/30 05:55:23;;;;;;;6.75;1.80;;;25.80;60.20;;;;;;4996200;28;20026;-82
2023/12/30 05:57:50;;;;;;;7.00;1.85;;;25.80;60.90;;;;;;5010729;28;20036;-82
2023/12/30 06:00:19;;;;;;;10.35;2.47;;;25.70;61.60;;;;;;5013064;28;20025;-80
2023/12/30 06:02:48;;;;;;;12.02;3.05;;;25.60;62.20;;;;;;5016088;28;20473;-89
2023/12/30 06:05:15;;;;;;;11.40;2.65;;;25.50;62.20;;;;;;5013399;28;20033;-84
2023/12/30 06:07:43;;;;;;;8.48;2.10;;;25.30;62.60;;;;;;5013509;28;20054;-80
2023/12/30 06:10:10;;;;;;;12.45;2.92;;;25.30;62.70;;;;;;5028705;28;20044;-85
2023/12/30 06:12:38;;;;;;;11.45;2.80;;;25.20;62.80;;;;;;5025039;28;20037;-89
2023/12/30 06:15:06;;;;;;;13.50;2.50;;;25.20;63.10;;;;;;5013477;28;20013;-89
2023/12/30 06:17:33;;;;;;;8.00;2.53;;;25.20;63.20;;;;;;5019213;28;20033;-86
2023/12/30 06:20:00;;;;;;;9.38;2.58;;;25.10;63.20;;;;;;5017244;28;20049;-84
2023/12/30 06:22:28;;;;;;;9.63;3.60;;;25.10;63.20;;;;;;5019119;28;20022;-83
2023/12/30 06:24:55;;;;;;;9.43;2.70;;;25.00;63.30;;;;;;5013468;28;20092;-89
2023/12/30 06:27:23;;;;;;;11.63;3.00;;;24.90;63.50;;;;;;5029806;28;20038;-84
2023/12/30 06:29:51;;;;;;;10.00;2.72;;;24.80;63.80;;;;;;5033132;28;20378;-84
2023/12/30 06:32:18;;;;;;;8.25;2.13;;;24.80;63.90;;;;;;5017421;28;20033;-89
2023/12/30 06:34:45;;;;;;;10.90;3.40;;;24.80;63.90;;;;;;5018995;28;20037;-83
2023/12/30 06:37:13;;;;;;;13.35;3.10;;;24.80;63.90;;;;;;5024559;28;20029;-88
2023/12/30 06:39:40;;;;;;;8.60;2.75;;;24.70;63.60;;;;;;5011571;28;20022;-87
2023/12/30 06:42:08;;;;;;;9.85;2.70;;;24.60;63.90;;;;;;5019689;28;20052;-83
2023/12/30 06:44:35;;;;;;;10.98;3.10;;;24.50;64.20;;;;;;5011675;28;20022;-88
2023/12/30 06:47:05;;;;;;;10.57;3.25;;;24.40;64.50;;;;;;5023070;28;20329;-86
2023/12/30 06:49:32;;;;;;;9.98;2.75;;;24.50;64.80;;;;;;5010020;28;20030;-80
2023/12/30 06:51:59;;;;;;;13.52;2.80;;;24.50;64.90;;;;;;5023561;28;20550;-79
2023/12/30 06:54:27;;;;;;;13.88;2.92;;;24.50;64.40;;;;;;5030659;28;20147;-87
2023/12/30 06:56:54;;;;;;;9.07;2.60;;;24.40;64.50;;;;;;5035197;28;20033;-87
2023/12/30 06:59:22;;;;;;;7.05;2.42;;;24.40;64.40;;;;;;5028817;28;20033;-85
2023/12/30 07:01:50;;;;;;;8.57;2.40;;;24.30;64.70;;;;;;5015103;28;20365;-88
2023/12/30 07:04:18;;;;;;;12.23;2.95;;;24.30;65.00;;;;;;5016564;28;20017;-87
2023/12/30 07:06:45;;;;;;;12.55;4.05;;;24.30;65.10;;;;;;5032789;28;20049;-88
2023/12/30 07:09:14;;;;;;;12.10;2.63;;;24.30;64.90;;;;;;5024729;28;20029;-90
2023/12/30 07:11:42;;;;;;;10.02;3.20;;;24.20;65.00;;;;;;5022608;28;20057;-80
2023/12/30 07:14:09;;;;;;;11.60;2.78;;;24.20;65.10;;;;;;5034381;28;20030;-91
2023/12/30 07:16:37;;;;;;;7.60;2.42;;;24.20;65.20;;;;;;5021765;28;20029;-89
2023/12/30 07:19:04;;;;;;;9.48;2.30;;;24.10;65.30;;;;;;5005709;28;20061;-83
2023/12/30 07:21:31;;;;;;;9.32;2.38;;;24.10;65.00;;;;;;5027174;28;20025;-91
2023/12/30 07:23:59;;;;;;;10.55;2.42;;;24.00;65.30;;;;;;5025568;28;20037;-90
2023/12/30 07:26:26;;;;;;;8.80;2.33;;;24.00;65.20;;;;;;5034960;28;20508;-88
2023/12/30 07:28:54;;;;;;;15.30;2.78;;;24.00;65.40;;;;;;5026389;28;20454;-89
2023/12/30 07:31:21;;;;;;;13.35;2.58;;;24.00;65.30;;;;;;5005488;28;20044;-84
2023/12/30 07:33:49;;;;;;;11.30;2.30;;;23.90;65.20;;;;;;5013929;28;20478;-80
2023/12/30 07:36:19;;;;;;;8.63;2.25;;;23.90;65.60;;;;;;5013995;28;20030;-89
2023/12/30 07:38:47;;;;;;;15.50;2.97;;;23.80;65.60;;;;;;5028518;28;20057;-89
2023/12/30 07:41:14;;;;;;;9.65;2.25;;;23.80;65.60;;;;;;5015963;28;20018;-82
2023/12/30 07:43:42;;;;;;;9.85;2.30;;;23.80;66.00;;;;;;5017829;28;20097;-82
2023/12/30 07:46:13;;;;;;;8.43;2.80;;;23.70;66.10;;;;;;5013644;28;20068;-89
2023/12/30 07:48:40;;;;;;;8.73;2.75;;;23.70;66.00;;;;;;5017597;28;20034;-89
2023/12/30 07:51:08;;;;;;;9.30;2.58;;;23.70;65.70;;;;;;5015255;28;20385;-91
2023/12/30 07:53:35;;;;;;;10.40;2.38;;;23.60;65.70;;;;;;5013245;28;20029;-87
2023/12/30 07:56:04;;;;;;;6.90;2.50;;;23.60;66.20;;;;;;5015887;28;20388;-89
2023/12/30 07:58:31;;;;;;;9.90;2.30;;;23.50;66.30;;;;;;5023843;28;20024;-92
2023/12/30 08:00:59;;;;;;;9.38;2.20;;;23.50;66.10;;;;;;5023335;28;20041;-91
2023/12/30 08:03:26;;;;;;;9.50;2.50;;;23.50;65.80;;;;;;5014800;28;20511;-80
2023/12/30 08:05:53;;;;;;;4.85;1.83;;;23.40;66.00;;;;;;5011514;28;20117;-82
2023/12/30 08:08:21;;;;;;;8.85;2.17;;;23.40;66.20;;;;;;5010811;28;20038;-81
2023/12/30 08:10:48;;;;;;;9.15;2.28;;;23.40;65.80;;;;;;5015666;28;20022;-91
2023/12/30 08:13:16;;;;;;;9.43;2.20;;;23.30;66.00;;;;;;5019311;28;20033;-90
2023/12/30 08:15:44;;;;;;;7.88;2.10;;;23.30;66.30;;;;;;5014679;28;20053;-81
2023/12/30 08:18:11;;;;;;;11.98;2.60;;;23.40;66.20;;;;;;5021956;28;20618;-80
2023/12/30 08:20:38;;;;;;;5.35;1.90;;;23.30;65.80;;;;;;5022446;28;20022;-87
2023/12/30 08:23:06;;;;;;;11.60;2.40;;;23.30;66.10;;;;;;5018700;28;20032;-91
2023/12/30 08:25:33;;;;;;;8.88;2.58;;;23.30;66.00;;;;;;5028854;28;20053;-84
2023/12/30 08:28:01;;;;;;;8.30;2.30;;;23.30;65.90;;;;;;5033524;28;20492;-89
2023/12/30 08:30:28;;;;;;;10.82;2.63;;;23.20;65.50;;;;;;5030142;28;20037;-90
2023/12/30 08:32:56;;;;;;;10.85;2.25;;;23.20;65.80;;;;;;5013984;28;20061;-87
2023/12/30 08:35:23;;;;;;;8.63;2.20;;;23.20;65.60;;;;;;5021014;28;20033;-86
2023/12/30 08:37:51;;;;;;;8.85;2.35;;;23.10;65.50;;;;;;5024760;28;20083;-84
2023/12/30 08:40:18;;;;;;;9.50;2.10;;;23.10;65.80;;;;;;5026028;28;20749;-81
2023/12/30 08:42:46;;;;;;;9.90;2.20;;;23.10;65.60;;;;;;5022690;28;20025;-84
2023/12/30 08:45:18;;;;;;;8.38;1.63;;;23.00;65.90;;;;;;5033729;28;20080;-90
2023/12/30 08:47:48;;;;;;;5.30;1.88;;;23.00;66.30;;;;;;5016147;28;20042;-89
2023/12/30 08:50:16;;;;;;;9.10;2.05;;;23.00;66.70;;;;;;5018031;28;20026;-87
2023/12/30 08:52:43;;;;;;;7.80;2.10;;;23.00;66.40;;;;;;5027402;28;20033;-87
2023/12/30 08:55:11;;;;;;;7.72;1.80;;;23.00;66.30;;;;;;5020212;28;20049;-86
2023/12/30 08:57:39;;;;;;;5.35;1.80;;;23.00;66.40;;;;;;5011389;28;20386;-81
2023/12/30 09:00:10;;;;;;;7.68;2.17;;;22.90;66.40;;;;;;5021003;28;20030;-83
2023/12/30 09:02:46;;;;;;;10.43;1.90;;;23.00;66.40;;;;;;5015140;28;20370;-82
2023/12/30 09:05:19;;;;;;;7.47;1.80;;;22.90;66.30;;;;;;5030765;28;20354;-89
2023/12/30 09:07:50;;;;;;;7.40;2.00;;;22.90;66.40;;;;;;5023471;28;20508;-88
2023/12/30 09:10:18;;;;;;;7.78;2.33;;;22.90;66.60;;;;;;5017062;28;20022;-84
2023/12/30 09:12:46;;;;;;;9.43;2.17;;;22.90;66.50;;;;;;5013542;28;20060;-85
2023/12/30 09:15:13;;;;;;;6.53;2.00;;;22.90;66.50;;;;;;5012336;28;20425;-90
2023/12/30 09:17:40;;;;;;;4.82;1.92;;;22.90;66.20;;;;;;5022438;28;20029;-86
2023/12/30 09:20:08;;;;;;;7.85;2.20;;;22.90;66.70;;;;;;5019726;28;20032;-84
2023/12/30 09:22:37;;;;;;;8.18;2.03;;;22.90;66.60;;;;;;5027435;28;20315;-86
2023/12/30 09:25:04;;;;;;;9.18;2.67;;;22.90;65.70;;;;;;5029134;28;20112;-82
2023/12/30 09:27:35;;;;;;;7.93;2.33;;;22.80;65.70;;;;;;5028530;28;20576;-79
2023/12/30 09:30:04;;;;;;;8.80;1.73;;;22.80;66.20;;;;;;5017805;28;20116;-81
2023/12/30 09:32:31;;;;;;;8.40;2.22;;;22.80;65.60;;;;;;5015518;28;20029;-79
2023/12/30 09:35:01;;;;;;;9.68;1.88;;;22.80;65.80;;;;;;5020710;28;20469;-82
2023/12/30 09:37:29;;;;;;;7.65;2.20;;;22.80;65.70;;;;;;5019804;28;20501;-82
2023/12/30 09:39:57;;;;;;;9.32;2.08;;;22.80;65.70;;;;;;5016724;28;20030;-88
2023/12/30 09:42:25;;;;;;;6.45;2.00;;;22.80;65.90;;;;;;5013457;28;20389;-86
2023/12/30 09:44:53;;;;;;;8.73;2.15;;;22.80;65.70;;;;;;5020889;28;20026;-88
2023/12/30 09:47:23;;;;;;;9.57;2.28;;;22.70;65.80;;;;;;5018560;28;20084;-83
2023/12/30 09:49:50;;;;;;;4.60;2.00;;;22.70;65.90;;;;;;5032778;28;20028;-82
2023/12/30 09:52:18;;;;;;;13.85;2.53;;;22.70;65.90;;;;;;5024959;28;20079;-84
2023/12/30 09:54:47;;;;;;;6.38;2.00;;;22.70;65.50;;;;;;5033639;28;20014;-85
2023/12/30 09:57:15;;;;;;;7.53;2.20;;;22.60;65.20;;;;;;5018521;28;20472;-82
2023/12/30 09:59:44;;;;;;;8.85;2.05;;;22.60;65.60;;;;;;5018514;28;20036;-88
2023/12/30 10:02:12;;;;;;;7.53;1.98;;;22.60;65.80;;;;;;5013980;28;20057;-86
2023/12/30 10:04:39;;;;;;;12.07;1.92;;;22.60;65.40;;;;;;5010927;28;20429;-79
2023/12/30 10:07:07;;;;;;;6.63;2.13;;;22.60;66.00;;;;;;5013122;28;20056;-88
2023/12/30 10:09:37;;;;;;;4.40;1.73;;;22.60;65.80;;;;;;5025584;28;20045;-78
2023/12/30 10:12:05;;;;;;;9.43;2.28;;;22.60;66.00;;;;;;5026669;28;20033;-86
2023/12/30 10:14:33;;;;;;;8.18;2.17;;;22.60;65.90;;;;;;5021038;28;20026;-78
2023/12/30 10:17:06;;;;;;;7.63;1.90;;;22.60;65.90;;;;;;5022499;28;20096;-80
2023/12/30 10:19:33;;;;;;;9.82;2.53;;;22.50;65.70;;;;;;5033423;28;20477;-87
2023/12/30 10:22:00;;;;;;;5.90;1.65;;;22.60;65.30;;;;;;5030400;28;20698;-81
2023/12/30 10:24:28;;;;;;;7.30;1.90;;;22.50;65.50;;;;;;5029194;28;20021;-83
2023/12/30 10:26:58;;;;;;;4.30;2.03;;;22.50;65.60;;;;;;5014065;28;20042;-87
2023/12/30 10:29:26;;;;;;;6.07;1.85;;;22.50;65.70;;;;;;5019590;28;20377;-78
2023/12/30 10:32:03;;;;;;;9.20;2.10;;;22.50;65.80;;;;;;5027263;28;20186;-87
2023/12/30 10:34:31;;;;;;;6.10;1.90;;;22.50;65.60;;;;;;5017227;28;20030;-89
2023/12/30 10:37:00;;;;;;;6.70;1.85;;;22.50;65.30;;;;;;5012400;28;20104;-87
2023/12/30 10:39:29;;;;;;;3.58;1.27;;;22.50;65.40;;;;;;5014201;28;20049;-84
2023/12/30 10:41:58;;;;;;;4.88;1.65;;;22.40;65.20;;;;;;5024649;28;20060;-85
2023/12/30 10:44:25;;;;;;;4.03;1.55;;;22.40;65.40;;;;;;5024640;28;20064;-85
2023/12/30 10:46:53;;;;;;;4.75;1.50;;;22.40;65.60;;;;;;5018563;28;20079;-83
2023/12/30 10:49:23;;;;;;;6.00;2.00;;;22.30;66.00;;;;;;5013180;28;20076;-84
2023/12/30 10:51:53;;;;;;;7.00;1.95;;;22.40;66.30;;;;;;5020834;28;20025;-87
2023/12/30 10:54:29;;;;;;;6.63;1.92;;;22.40;65.90;;;;;;5032779;28;20037;-83
2023/12/30 10:57:03;;;;;;;9.63;2.10;;;22.40;66.30;;;;;;5014927;28;20101;-80
2023/12/30 10:59:31;;;;;;;4.63;1.45;;;22.40;65.90;;;;;;5028767;28;20097;-84
2023/12/30 11:01:59;;;;;;;7.65;2.17;;;22.30;66.00;;;;;;5018768;28;20029;-87
2023/12/30 11:04:27;;;;;;;8.35;1.65;;;22.30;66.30;;;;;;5017911;28;20469;-83
2023/12/30 11:06:59;;;;;;;8.25;1.63;;;22.30;66.00;;;;;;5031482;28;20056;-77
2023/12/30 11:09:30;;;;;;;4.95;1.30;;;22.30;66.60;;;;;;5032770;28;20022;-86
2023/12/30 11:12:02;;;;;;;4.93;1.40;;;22.30;67.40;;;;;;5023280;28;20389;-82
2023/12/30 11:14:31;;;;;;;5.97;1.48;;;22.20;68.20;;;;;;5020214;28;20117;-81
2023/12/30 11:16:58;;;;;;;4.75;1.65;;;22.20;68.80;;;;;;5011384;28;20041;-83
2023/12/30 11:19:31;;;;;;;7.35;1.50;;;22.20;69.30;;;;;;5012286;28;20030;-83
2023/12/30 11:22:05;;;;;;;8.82;1.90;;;22.20;70.30;;;;;;5013776;28;20030;-83
2023/12/30 11:24:34;;;;;;;7.00;1.33;;;22.00;70.50;;;;;;5014451;28;20488;-83
2023/12/30 11:27:02;;;;;;;4.70;1.17;;;22.00;71.20;;;;;;5012227;28;20397;-82
2023/12/30 11:29:30;;;;;;;10.43;1.75;;;21.90;71.50;;;;;;5013130;28;20034;-78
2023/12/30 11:31:59;;;;;;;9.35;2.15;;;21.90;71.80;;;;;;5016575;28;20116;-81
2023/12/30 11:34:26;;;;;;;6.57;1.58;;;21.80;71.80;;;;;;5032723;28;20480;-79
2023/12/30 11:36:55;;;;;;;7.18;1.65;;;21.70;72.30;;;;;;5019130;28;20037;-79
2023/12/30 11:39:31;;;;;;;5.72;1.60;;;21.70;73.20;;;;;;5035406;28;20029;-79
2023/12/30 11:42:01;;;;;;;5.78;1.58;;;21.70;73.30;;;;;;5010161;28;20034;-79
2023/12/30 11:44:31;;;;;;;7.45;1.38;;;21.60;73.60;;;;;;5019430;28;20045;-79
2023/12/30 11:46:59;;;;;;;7.40;1.70;;;21.50;74.40;;;;;;5018768;28;20034;-79
2023/12/30 11:49:28;;;;;;;7.15;1.85;;;21.50;74.60;;;;;;5000959;28;20041;-82
2023/12/30 11:52:07;;;;;;;6.65;1.60;;;21.40;74.80;;;;;;5023411;28;20034;-84
2023/12/30 11:54:35;;;;;;;7.50;1.77;;;21.30;74.50;;;;;;5014348;28;20544;-78
2023/12/30 11:57:06;;;;;;;7.97;2.17;;;21.30;74.70;;;;;;5014757;28;20030;-78
2023/12/30 11:59:33;;;;;;;13.23;2.70;;;21.20;74.90;;;;;;5013702;28;20033;-86
2023/12/30 12:02:13;;;;;;;7.07;1.60;;;21.20;75.40;;;;;;5013841;28;20029;-78
2023/12/30 12:04:42;;;;;;;7.10;1.98;;;21.20;75.60;;;;;;5014831;28;20026;-78
2023/12/30 12:07:10;;;;;;;14.38;2.55;;;21.10;76.00;;;;;;5027898;28;20469;-80
2023/12/30 12:09:40;;;;;;;7.53;2.20;;;21.00;76.30;;;;;;5022716;28;20048;-79
2023/12/30 12:12:08;;;;;;;16.80;2.67;;;21.00;77.10;;;;;;5014845;28;20026;-83
2023/12/30 12:14:35;;;;;;;9.70;2.10;;;20.90;77.60;;;;;;5014993;28;20058;-79
2023/12/30 12:17:09;;;;;;;7.93;1.95;;;20.90;77.70;;;;;;5013873;28;20409;-79
2023/12/30 12:19:40;;;;;;;9.18;2.80;;;20.90;78.50;;;;;;5015343;28;20041;-79
2023/12/30 12:22:07;;;;;;;6.22;1.90;;;20.90;78.70;;;;;;5013529;28;20117;-79
2023/12/30 12:24:35;;;;;;;13.63;2.58;;;20.90;78.00;;;;;;5014919;28;20088;-79
2023/12/30 12:27:03;;;;;;;14.80;2.75;;;20.80;78.30;;;;;;5030406;28;20026;-79
2023/12/30 12:29:33;;;;;;;12.20;2.53;;;20.80;78.40;;;;;;5012635;28;20485;-79
2023/12/30 12:32:04;;;;;;;9.80;2.20;;;20.70;79.00;;;;;;5024421;28;20040;-81
2023/12/30 12:34:31;;;;;;;16.10;3.47;;;20.60;79.40;;;;;;5025025;28;20041;-80
2023/12/30 12:36:58;;;;;;;11.25;2.40;;;20.60;79.80;;;;;;5022839;28;20033;-78
2023/12/30 12:39:29;;;;;;;11.77;2.75;;;20.60;79.90;;;;;;5019305;28;20493;-85
2023/12/30 12:41:56;;;;;;;13.80;2.58;;;20.60;80.10;;;;;;5022970;28;20104;-80
2023/12/30 12:44:23;;;;;;;8.65;2.08;;;20.60;80.30;;;;;;5013967;28;20033;-84
2023/12/30 12:46:51;;;;;;;15.38;2.50;;;20.60;80.80;;;;;;5013569;28;20037;-79
2023/12/30 12:49:21;;;;;;;16.65;2.85;;;20.60;80.50;;;;;;5013177;28;20018;-79